Time;durP1;ratioP1;P1;durP2;ratioP2;P2;SDS_P1;SDS_P2;PMS_P1;PMS_P2;Temp;Humidity;BMP_temperature;BMP_pressure;BME280_temperature;BME280_humidity;BME280_pressure;Samples;Min_cycle;Max_cycle;Signal;HPM_P1;HPM_P2
2022/01/14 00:02:07;;;;;;;62.70;22.35;;;;;;;-4.38;100.00;98561.75;4974421;28;20042;-66
2022/01/14 00:04:32;;;;;;;57.80;22.02;;;;;;;-4.41;100.00;98557.69;4964607;28;20043;-65
2022/01/14 00:06:58;;;;;;;54.80;21.38;;;;;;;-4.27;100.00;98556.47;4964327;28;20050;-64
2022/01/14 00:09:24;;;;;;;55.58;22.08;;;;;;;-4.32;100.00;98555.50;4958298;28;20554;-66
2022/01/14 00:11:55;;;;;;;54.00;20.88;;;;;;;-4.29;100.00;98545.16;4963208;28;20149;-66
2022/01/14 00:14:39;;;;;;;54.47;22.10;;;;;;;-4.46;100.00;98554.84;4959445;28;20046;-65
2022/01/14 00:17:10;;;;;;;59.50;23.38;;;;;;;-4.57;100.00;98550.22;4958801;28;20133;-65
2022/01/14 00:19:36;;;;;;;57.78;23.60;;;;;;;-4.62;100.00;98542.91;4977202;28;20050;-65
2022/01/14 00:22:06;;;;;;;61.72;23.63;;;;;;;-4.76;100.00;98541.41;4960024;28;20051;-63
2022/01/14 00:31:41;;;;;;;59.58;22.20;;;;;;;-4.92;100.00;98540.13;4956945;28;20049;-65
2022/01/14 00:33:09;;;;;;;58.67;23.65;;;;;;;-5.00;100.00;98542.03;4963333;28;20049;-66
2022/01/14 00:35:36;;;;;;;60.88;24.08;;;;;;;-4.91;100.00;98544.44;4964503;28;20050;-65
2022/01/14 00:38:01;;;;;;;71.05;25.35;;;;;;;-4.90;100.00;98538.06;4969219;28;20078;-65
2022/01/14 00:40:27;;;;;;;63.92;25.38;;;;;;;-4.87;100.00;98534.94;4956717;28;20073;-64
2022/01/14 00:42:53;;;;;;;58.70;22.67;;;;;;;-4.69;100.00;98539.47;4961783;28;20039;-66
2022/01/14 00:45:19;;;;;;;57.45;23.23;;;;;;;-4.56;100.00;98538.50;4973246;28;20053;-66
2022/01/14 00:47:45;;;;;;;56.85;22.80;;;;;;;-4.57;100.00;98540.38;4957925;28;20085;-66
2022/01/14 00:50:13;;;;;;;60.45;23.85;;;;;;;-4.53;100.00;98546.91;4982803;28;20157;-66
2022/01/14 00:52:40;;;;;;;56.30;23.00;;;;;;;-4.51;100.00;98544.00;4972665;28;20404;-66
2022/01/14 00:55:08;;;;;;;52.00;21.60;;;;;;;-4.61;100.00;98553.38;4956336;28;20130;-63
2022/01/14 01:00:21;;;;;;;56.40;22.13;;;;;;;-4.74;100.00;98548.16;4944561;28;20093;-65
2022/01/14 01:02:48;;;;;;;51.95;20.83;;;;;;;-4.83;100.00;98552.16;4960078;28;20078;-65
2022/01/14 01:05:14;;;;;;;54.60;19.58;;;;;;;-4.86;100.00;98552.59;4954346;28;20590;-63
2022/01/14 01:07:45;;;;;;;55.90;21.20;;;;;;;-4.98;100.00;98557.06;4961656;28;20455;-64
2022/01/14 01:10:12;;;;;;;57.15;22.48;;;;;;;-5.07;100.00;98554.66;4958693;28;20129;-65
2022/01/14 01:15:09;;;;;;;59.20;22.67;;;;;;;-5.03;100.00;98560.38;4946449;28;20035;-58
2022/01/14 01:17:36;;;;;;;63.20;21.77;;;;;;;-4.93;100.00;98568.72;4956687;28;20416;-63
2022/01/14 01:20:15;;;;;;;56.45;22.30;;;;;;;-4.90;100.00;98567.44;4973038;28;20074;-63
2022/01/14 01:22:41;;;;;;;57.30;22.65;;;;;;;-4.95;100.00;98572.63;4966973;28;20035;-64
2022/01/14 01:25:09;;;;;;;54.05;22.77;;;;;;;-5.10;100.00;98573.78;4956852;28;20105;-63
2022/01/14 01:27:39;;;;;;;53.15;21.88;;;;;;;-5.12;100.00;98581.22;4962338;28;20035;-63
2022/01/14 01:30:27;;;;;;;;;;;;;;;-4.87;100.00;98577.72;4957534;28;20047;-62
2022/01/14 01:32:53;;;;;;;54.55;22.05;;;;;;;-4.84;100.00;98580.75;4961776;28;19945;-63
2022/01/14 01:35:20;;;;;;;57.17;22.42;;;;;;;-4.78;100.00;98570.22;4957290;28;20200;-64
2022/01/14 01:37:45;;;;;;;63.70;22.88;;;;;;;-4.87;100.00;98567.00;4961658;28;20042;-65
2022/01/14 01:40:12;;;;;;;62.63;23.33;;;;;;;-4.77;100.00;98566.50;4958025;28;20049;-65
2022/01/14 01:42:41;;;;;;;60.30;24.23;;;;;;;-4.87;100.00;98569.69;4962807;28;20101;-66
2022/01/14 01:45:10;;;;;;;62.47;23.23;;;;;;;-4.88;100.00;98568.88;4957439;28;20038;-66
2022/01/14 01:47:37;;;;;;;57.10;23.00;;;;;;;-4.94;100.00;98571.59;4962797;28;20049;-64
2022/01/14 01:50:15;;;;;;;60.50;21.90;;;;;;;-5.05;100.00;98565.94;4973902;28;20046;-62
2022/01/14 01:52:41;;;;;;;64.80;23.63;;;;;;;-5.07;100.00;98576.03;4961423;28;20117;-65
2022/01/14 01:55:07;;;;;;;53.13;21.92;;;;;;;-5.06;100.00;98574.16;4955126;28;20083;-61
2022/01/14 01:57:34;;;;;;;52.47;22.48;;;;;;;-4.99;100.00;98572.25;4975151;28;20039;-65
2022/01/14 01:59:59;;;;;;;59.28;20.70;;;;;;;-4.94;100.00;98579.63;4961663;28;20067;-65
2022/01/14 02:02:25;;;;;;;57.47;20.83;;;;;;;-4.84;100.00;98582.63;4957228;28;20590;-65
2022/01/14 02:04:51;;;;;;;53.63;21.05;;;;;;;-4.75;100.00;98581.28;4964291;28;20035;-66
2022/01/14 02:07:17;;;;;;;49.80;20.80;;;;;;;-4.74;100.00;98579.44;4961669;28;20431;-65
2022/01/14 02:09:42;;;;;;;49.90;20.50;;;;;;;-4.70;100.00;98575.25;4980990;28;20133;-66
2022/01/14 02:12:11;;;;;;;56.65;21.63;;;;;;;-4.67;100.00;98580.97;4973834;28;20049;-60
2022/01/14 02:22:09;;;;;;;50.28;19.48;;;;;;;-4.83;100.00;98573.53;4968962;28;20046;-66
2022/01/14 02:22:46;;;;;;;53.33;19.73;;;;;;;-4.76;100.00;98565.47;4968689;28;20137;-65
2022/01/14 02:25:12;;;;;;;60.95;20.73;;;;;;;-4.69;100.00;98569.69;4966853;28;20514;-65
2022/01/14 02:27:37;;;;;;;50.88;20.13;;;;;;;-4.61;100.00;98563.22;4967686;28;20074;-65
2022/01/14 02:30:05;;;;;;;49.92;19.33;;;;;;;-4.64;100.00;98563.69;4967974;28;20066;-62
2022/01/14 02:32:30;;;;;;;46.15;20.05;;;;;;;-4.73;100.00;98568.50;4981062;28;20046;-65
2022/01/14 02:34:56;;;;;;;53.10;21.80;;;;;;;-4.96;100.00;98565.66;4968366;28;20133;-65
2022/01/14 02:37:23;;;;;;;50.45;20.25;;;;;;;-4.97;100.00;98562.16;4963218;28;20146;-65
2022/01/14 02:39:48;;;;;;;52.70;21.52;;;;;;;-4.91;100.00;98563.97;4961953;28;20388;-65
2022/01/14 02:42:14;;;;;;;54.83;20.13;;;;;;;-4.90;100.00;98560.25;4959504;28;20043;-64
2022/01/14 02:44:39;;;;;;;50.33;21.60;;;;;;;-5.05;100.00;98555.25;4963685;28;20047;-64
2022/01/14 02:47:07;;;;;;;52.00;22.08;;;;;;;-5.13;100.00;98542.19;4958594;28;20108;-63
2022/01/14 02:49:36;;;;;;;48.30;21.70;;;;;;;-5.27;100.00;98546.00;4960019;28;20163;-64
2022/01/14 02:52:04;;;;;;;54.70;19.77;;;;;;;-5.25;100.00;98538.59;4962042;28;20504;-64
2022/01/14 02:54:41;;;;;;;56.58;21.33;;;;;;;-5.28;100.00;98545.19;4960709;28;20109;-63
2022/01/14 02:57:09;;;;;;;49.83;20.55;;;;;;;-5.35;100.00;98549.75;4952420;28;20049;-61
2022/01/14 02:59:36;;;;;;;51.20;20.05;;;;;;;-5.46;100.00;98543.28;4961686;28;20167;-64
2022/01/14 03:02:06;;;;;;;54.30;21.38;;;;;;;-5.58;100.00;98531.69;4959676;28;20388;-61
2022/01/14 03:04:36;;;;;;;55.25;19.90;;;;;;;-5.69;100.00;98529.69;4959217;28;20869;-64
2022/01/14 03:07:04;;;;;;;53.65;21.65;;;;;;;-5.72;100.00;98525.63;4959173;28;20138;-62
2022/01/14 03:09:29;;;;;;;54.92;22.45;;;;;;;-5.70;100.00;98523.53;4959718;28;20034;-66
2022/01/14 03:11:59;;;;;;;52.50;21.17;;;;;;;-5.69;100.00;98527.84;4961418;28;20050;-65
2022/01/14 03:14:25;;;;;;;60.75;22.73;;;;;;;-5.64;100.00;98528.00;4955665;28;20540;-64
2022/01/14 03:16:53;;;;;;;54.10;21.25;;;;;;;-5.65;100.00;98531.72;4957128;28;20047;-65
2022/01/14 03:19:23;;;;;;;55.88;21.42;;;;;;;-5.58;100.00;98526.34;4950467;28;20105;-65
2022/01/14 03:21:51;;;;;;;59.85;24.38;;;;;;;-5.38;100.00;98524.31;4960670;28;20039;-66
2022/01/14 03:25:36;;;;;;;61.28;23.52;;;;;;;-5.42;100.00;98528.47;4955193;28;20039;-63
2022/01/14 03:27:08;;;;;;;53.97;22.27;;;;;;;-5.28;100.00;98523.81;4956314;28;20061;-65
2022/01/14 03:29:34;;;;;;;54.67;20.80;;;;;;;-5.14;100.00;98531.72;4972604;28;20051;-66
2022/01/14 03:32:01;;;;;;;50.78;19.10;;;;;;;-4.96;100.00;98522.91;4965005;28;20049;-65
2022/01/14 03:34:27;;;;;;;51.85;21.35;;;;;;;-4.90;100.00;98530.03;4983747;28;20058;-64
2022/01/14 03:36:53;;;;;;;55.83;21.65;;;;;;;-4.88;100.00;98533.28;4967048;28;20058;-65
2022/01/14 03:39:19;;;;;;;50.30;21.33;;;;;;;-4.95;100.00;98529.88;4968607;28;20043;-63
2022/01/14 03:41:45;;;;;;;55.42;22.40;;;;;;;-5.00;100.00;98535.91;4960808;28;20432;-65
2022/01/14 03:44:11;;;;;;;54.22;20.48;;;;;;;-5.06;100.00;98542.09;4951615;28;20078;-64
2022/01/14 03:46:36;;;;;;;49.80;20.65;;;;;;;-4.94;100.00;98543.00;4961657;28;20077;-64
2022/01/14 03:49:03;;;;;;;55.78;20.05;;;;;;;-4.96;100.00;98547.78;4972326;28;20138;-62
2022/01/14 03:51:29;;;;;;;55.15;20.73;;;;;;;-4.96;100.00;98542.44;4962748;28;20047;-64
2022/01/14 03:53:55;;;;;;;58.00;21.15;;;;;;;-5.02;100.00;98535.31;4979786;28;20058;-65
2022/01/14 03:56:25;;;;;;;56.38;21.15;;;;;;;-5.06;100.00;98536.75;4955475;28;20440;-64
2022/01/14 03:58:52;;;;;;;54.92;21.55;;;;;;;-5.17;100.00;98530.28;4963680;28;20085;-64
2022/01/14 04:01:19;;;;;;;51.88;20.23;;;;;;;-5.42;100.00;98533.81;4957327;28;20429;-64
2022/01/14 04:03:47;;;;;;;49.53;20.75;;;;;;;-5.51;100.00;98542.28;4965078;28;20047;-65
2022/01/14 04:06:13;;;;;;;53.83;20.02;;;;;;;-5.59;100.00;98532.72;4958300;28;20043;-63
2022/01/14 04:08:39;;;;;;;50.63;19.98;;;;;;;-5.48;100.00;98534.66;4962633;28;20050;-64
2022/01/14 04:11:05;;;;;;;50.85;21.88;;;;;;;-5.49;100.00;98530.38;4957420;28;20387;-62
2022/01/14 04:16:23;;;;;;;51.60;20.42;;;;;;;-5.43;100.00;98537.50;4960116;28;20039;-63
2022/01/14 04:18:50;;;;;;;52.33;19.65;;;;;;;-5.27;100.00;98532.66;4974597;28;20043;-66
2022/01/14 04:21:16;;;;;;;53.47;21.83;;;;;;;-5.14;100.00;98527.19;4975068;28;20518;-65
2022/01/14 04:23:41;;;;;;;55.38;20.85;;;;;;;-5.13;100.00;98523.50;4961098;28;20055;-64
2022/01/14 04:26:07;;;;;;;54.00;20.77;;;;;;;-5.02;100.00;98524.63;4956868;28;20410;-63
2022/01/14 04:28:36;;;;;;;52.40;21.60;;;;;;;-4.99;100.00;98524.16;4959335;28;20050;-66
2022/01/14 04:31:04;;;;;;;51.37;21.13;;;;;;;-5.22;100.00;98522.94;4962824;28;20039;-65
2022/01/14 04:33:32;;;;;;;48.03;19.40;;;;;;;-5.23;100.00;98528.50;4962078;28;20448;-65
2022/01/14 04:35:59;;;;;;;48.30;19.50;;;;;;;-5.02;100.00;98528.09;4977662;28;20125;-66
2022/01/14 04:38:26;;;;;;;48.00;20.95;;;;;;;-5.12;100.00;98522.44;4952021;28;20058;-65
2022/01/14 04:40:51;;;;;;;56.95;21.40;;;;;;;-5.25;100.00;98523.38;4962176;28;20051;-65
2022/01/14 04:43:20;;;;;;;52.60;21.83;;;;;;;-5.34;100.00;98519.34;4971784;28;20133;-65
2022/01/14 04:48:31;;;;;;;59.95;23.17;;;;;;;-5.74;100.00;98519.69;4960537;28;20512;-65
2022/01/14 04:50:58;;;;;;;60.72;23.42;;;;;;;-5.74;100.00;98522.34;4965235;28;20042;-65
2022/01/14 04:53:24;;;;;;;60.75;23.38;;;;;;;-5.75;100.00;98520.69;4959973;28;20057;-65
2022/01/14 04:55:51;;;;;;;64.13;22.55;;;;;;;-5.67;100.00;98514.28;4964152;28;20145;-66
2022/01/14 04:58:17;;;;;;;59.58;22.48;;;;;;;-5.65;100.00;98521.03;4959323;28;20039;-65
2022/01/14 05:00:43;;;;;;;54.72;21.40;;;;;;;-5.61;100.00;98524.91;4957427;28;20054;-65
2022/01/14 05:03:09;;;;;;;59.47;22.90;;;;;;;-5.52;100.00;98514.78;4958248;28;20130;-63
2022/01/14 05:05:38;;;;;;;65.22;22.75;;;;;;;-5.44;100.00;98505.66;4960127;28;20042;-65
2022/01/14 05:08:09;;;;;;;62.08;24.13;;;;;;;-5.24;100.00;98500.97;4958183;28;20043;-61
2022/01/14 05:10:47;;;;;;;57.80;22.27;;;;;;;-5.19;100.00;98500.31;4961272;28;20186;-64
2022/01/14 05:13:13;;;;;;;56.03;21.55;;;;;;;-5.16;100.00;98496.41;4953031;28;20070;-64
2022/01/14 05:15:38;;;;;;;62.00;23.42;;;;;;;-5.16;100.00;98491.84;4958062;28;20050;-65
2022/01/14 05:18:05;;;;;;;56.80;21.42;;;;;;;-5.29;100.00;98495.47;4958071;28;20061;-62
2022/01/14 05:20:30;;;;;;;56.72;22.40;;;;;;;-5.41;100.00;98487.34;4961953;28;20039;-65
2022/01/14 05:22:56;;;;;;;54.65;21.55;;;;;;;-5.38;100.00;98488.78;4961148;28;20339;-66
2022/01/14 05:25:21;;;;;;;60.67;21.58;;;;;;;-5.41;100.00;98494.56;4957803;28;20813;-65
2022/01/14 05:27:47;;;;;;;55.85;21.73;;;;;;;-5.27;100.00;98495.25;4960044;28;20097;-64
2022/01/14 05:30:14;;;;;;;55.25;22.05;;;;;;;-5.18;100.00;98489.41;4947987;28;20069;-62
2022/01/14 05:32:57;;;;;;;53.58;21.55;;;;;;;-5.07;100.00;98492.38;4959129;28;20465;-62
2022/01/14 05:35:26;;;;;;;55.97;21.55;;;;;;;-5.15;100.00;98498.00;4956511;28;20782;-63
2022/01/14 05:37:51;;;;;;;51.25;21.52;;;;;;;-5.30;100.00;98487.69;4960638;28;20065;-63
2022/01/14 05:40:19;;;;;;;52.75;20.80;;;;;;;-5.09;100.00;98492.59;4954383;28;20081;-64
2022/01/14 05:42:45;;;;;;;57.47;21.85;;;;;;;-5.22;100.00;98490.06;4961659;28;20462;-64
2022/01/14 05:45:13;;;;;;;57.40;23.23;;;;;;;-5.43;100.00;98485.94;4955923;28;20047;-66
2022/01/14 05:47:39;;;;;;;63.45;23.38;;;;;;;-5.49;100.00;98481.47;4960830;28;20046;-64
2022/01/14 05:50:08;;;;;;;59.00;22.15;;;;;;;-5.61;100.00;98484.88;4958211;28;20045;-65
2022/01/14 05:52:33;;;;;;;54.88;21.83;;;;;;;-5.60;100.00;98478.50;4964933;28;20054;-65
2022/01/14 05:54:59;;;;;;;54.65;21.60;;;;;;;-5.60;100.00;98466.97;4960678;28;20057;-64
2022/01/14 05:57:24;;;;;;;53.28;21.77;;;;;;;-5.59;100.00;98468.63;4956587;28;20047;-64
2022/01/14 05:59:50;;;;;;;61.20;22.08;;;;;;;-5.24;100.00;98474.28;4961739;28;20507;-66
2022/01/14 06:02:16;;;;;;;60.75;23.15;;;;;;;-5.13;100.00;98464.72;4953690;28;20077;-65
2022/01/14 06:04:43;;;;;;;60.40;23.95;;;;;;;-5.15;100.00;98474.78;4960968;28;20043;-65
2022/01/14 06:07:10;;;;;;;63.67;22.88;;;;;;;-5.03;100.00;98466.84;4956586;28;20109;-65
2022/01/14 06:09:36;;;;;;;64.22;23.58;;;;;;;-4.90;100.00;98471.22;4949359;28;20247;-64
2022/01/14 06:12:01;;;;;;;58.00;23.23;;;;;;;-4.75;100.00;98470.84;4963029;28;20512;-65
2022/01/14 06:14:27;;;;;;;60.67;21.80;;;;;;;-4.71;100.00;98472.84;4969348;28;20046;-64
2022/01/14 06:16:53;;;;;;;53.20;20.80;;;;;;;-4.63;100.00;98472.56;4978023;28;20085;-63
2022/01/14 06:19:18;;;;;;;52.65;21.80;;;;;;;-4.57;100.00;98473.53;4960599;28;20058;-64
2022/01/14 06:21:44;;;;;;;60.58;21.63;;;;;;;-4.57;100.00;98470.84;4961865;28;20046;-63
2022/01/14 06:24:09;;;;;;;53.58;22.33;;;;;;;-4.72;100.00;98470.41;4952732;28;20523;-61
2022/01/14 06:26:34;;;;;;;52.97;20.95;;;;;;;-4.70;100.00;98465.66;4971378;28;20204;-64
2022/01/14 06:29:00;;;;;;;57.63;22.35;;;;;;;-4.56;100.00;98468.97;4973742;28;20034;-64
2022/01/14 06:31:25;;;;;;;51.25;21.23;;;;;;;-4.65;100.00;98461.25;4971514;28;20050;-64
2022/01/14 06:33:51;;;;;;;55.03;20.60;;;;;;;-4.60;100.00;98460.59;4957589;28;20053;-67
2022/01/14 06:36:16;;;;;;;54.53;22.30;;;;;;;-4.43;100.00;98469.63;4954622;28;20078;-66
2022/01/14 06:38:42;;;;;;;52.22;20.92;;;;;;;-4.27;100.00;98462.84;4957120;28;20065;-65
2022/01/14 06:41:07;;;;;;;49.45;20.13;;;;;;;-4.27;100.00;98462.84;4956952;28;20042;-62
2022/01/14 06:43:33;;;;;;;50.65;20.88;;;;;;;-4.20;100.00;98459.25;4962144;28;20062;-67
2022/01/14 06:45:58;;;;;;;49.25;20.23;;;;;;;-4.18;100.00;98463.31;4959264;28;20039;-66
2022/01/14 06:48:25;;;;;;;58.15;21.73;;;;;;;-4.20;100.00;98469.94;4955540;28;20496;-65
2022/01/14 06:50:50;;;;;;;56.42;21.30;;;;;;;-4.39;100.00;98461.97;4959544;28;20715;-65
2022/01/14 06:53:16;;;;;;;50.13;19.65;;;;;;;-4.25;100.00;98459.91;4951822;28;20043;-65
2022/01/14 06:55:41;;;;;;;53.10;21.35;;;;;;;-4.28;100.00;98471.91;4972992;28;20050;-64
2022/01/14 06:58:07;;;;;;;50.17;20.30;;;;;;;-4.27;100.00;98480.72;4950775;28;20035;-66
2022/01/14 07:00:33;;;;;;;51.65;20.58;;;;;;;-4.09;100.00;98485.22;4959998;28;20061;-65
2022/01/14 07:03:00;;;;;;;52.58;20.88;;;;;;;-3.97;100.00;98482.59;4959351;28;20054;-65
2022/01/14 07:05:26;;;;;;;55.25;21.10;;;;;;;-4.12;100.00;98488.38;4957769;28;20074;-64
2022/01/14 07:07:51;;;;;;;62.28;21.45;;;;;;;-4.19;100.00;98493.00;4961086;28;20081;-64
2022/01/14 07:10:17;;;;;;;54.55;22.75;;;;;;;-4.12;100.00;98486.50;4957565;28;20396;-63
2022/01/14 07:12:44;;;;;;;52.10;21.30;;;;;;;-3.95;100.00;98483.97;4966070;28;20047;-65
2022/01/14 07:15:12;;;;;;;55.60;21.33;;;;;;;-3.88;100.00;98481.22;4957431;28;20078;-65
2022/01/14 07:17:38;;;;;;;49.72;22.83;;;;;;;-3.73;100.00;98484.25;4957709;28;20082;-65
2022/01/14 07:20:08;;;;;;;59.08;22.75;;;;;;;-3.59;100.00;98489.41;4963983;28;20039;-62
2022/01/14 07:22:35;;;;;;;51.05;21.67;;;;;;;-3.42;100.00;98484.19;4964622;28;20448;-64
2022/01/14 07:25:01;;;;;;;62.90;24.60;;;;;;;-3.26;100.00;98486.16;4963868;28;20530;-65
2022/01/14 07:27:27;;;;;;;55.47;23.13;;;;;;;-3.24;100.00;98488.59;4958928;28;20078;-66
2022/01/14 07:29:54;;;;;;;52.10;22.05;;;;;;;-3.19;100.00;98494.09;4964887;28;20053;-66
2022/01/14 07:32:19;;;;;;;50.83;22.58;;;;;;;-3.21;100.00;98488.97;4957890;28;20077;-67
2022/01/14 07:34:45;;;;;;;52.47;22.27;;;;;;;-3.39;100.00;98495.25;4962783;28;20075;-65
2022/01/14 07:37:11;;;;;;;52.72;22.02;;;;;;;-3.38;100.00;98498.75;4973189;28;20073;-66
2022/01/14 07:39:37;;;;;;;50.00;21.08;;;;;;;-3.29;100.00;98498.16;4965342;28;20041;-66
2022/01/14 07:42:03;;;;;;;54.63;23.40;;;;;;;-3.21;100.00;98505.03;4967239;28;20062;-62
2022/01/14 07:44:30;;;;;;;57.72;23.30;;;;;;;-3.11;100.00;98505.28;4977020;28;20572;-66
2022/01/14 07:46:55;;;;;;;60.58;24.20;;;;;;;-3.10;100.00;98498.88;4963031;28;20051;-66
2022/01/14 07:49:21;;;;;;;52.90;21.20;;;;;;;-2.90;100.00;98503.03;4961164;28;20053;-64
2022/01/14 07:51:46;;;;;;;58.80;22.55;;;;;;;-2.85;100.00;98505.03;4967326;28;20511;-66
2022/01/14 07:54:11;;;;;;;60.00;27.17;;;;;;;-3.05;100.00;98506.22;4964618;28;20671;-65
2022/01/14 07:56:45;;;;;;;61.38;23.77;;;;;;;-2.99;100.00;98499.94;4964634;28;20124;-64
2022/01/14 07:59:11;;;;;;;62.92;24.90;;;;;;;-2.97;100.00;98505.88;4965696;28;20129;-64
2022/01/14 08:01:37;;;;;;;55.67;23.15;;;;;;;-2.83;100.00;98505.59;4967729;28;20042;-64
2022/01/14 08:04:05;;;;;;;57.65;23.83;;;;;;;-2.60;100.00;98496.72;4966334;28;20504;-62
2022/01/14 08:06:44;;;;;;;63.22;24.67;;;;;;;-2.44;100.00;98506.69;4986339;28;20050;-66
2022/01/14 08:09:09;;;;;;;56.10;22.77;;;;;;;-2.33;100.00;98502.34;4966360;28;20047;-65
2022/01/14 08:11:35;;;;;;;54.17;23.50;;;;;;;-2.31;100.00;98503.72;4968222;28;20043;-64
2022/01/14 08:14:00;;;;;;;60.40;23.00;;;;;;;-2.33;100.00;98503.16;4960285;28;20165;-65
2022/01/14 08:16:26;;;;;;;59.08;23.25;;;;;;;-2.71;100.00;98507.22;4972013;28;20777;-64
2022/01/14 08:18:51;;;;;;;57.30;23.70;;;;;;;-2.95;100.00;98505.63;4964054;28;20495;-65
2022/01/14 08:21:17;;;;;;;58.45;23.25;;;;;;;-2.89;100.00;98500.13;4958587;28;20039;-65
2022/01/14 08:23:42;;;;;;;57.67;24.33;;;;;;;-2.70;100.00;98498.13;4964813;28;20038;-65
2022/01/14 08:26:08;;;;;;;55.80;25.45;;;;;;;-2.42;100.00;98501.91;4958826;28;20043;-61
2022/01/14 08:28:33;;;;;;;64.68;26.27;;;;;;;-2.36;100.00;98494.75;4963596;28;20559;-66
2022/01/14 08:30:59;;;;;;;67.30;26.08;;;;;;;-2.53;100.00;98498.19;4958588;28;20061;-66
2022/01/14 08:33:24;;;;;;;61.80;27.15;;;;;;;-2.69;100.00;98497.06;4955186;28;20519;-66
2022/01/14 08:35:50;;;;;;;63.17;26.10;;;;;;;-2.60;100.00;98499.38;4975396;28;20455;-65
2022/01/14 08:38:15;;;;;;;58.60;25.10;;;;;;;-2.65;100.00;98486.69;4956920;28;20051;-65
2022/01/14 08:40:41;;;;;;;65.78;26.83;;;;;;;-2.77;100.00;98488.59;4962839;28;20042;-64
2022/01/14 08:43:07;;;;;;;77.55;33.40;;;;;;;-2.94;100.00;98494.66;4959182;28;20046;-66
2022/01/14 08:45:33;;;;;;;63.10;27.58;;;;;;;-2.84;100.00;98501.31;4959999;28;20105;-65
2022/01/14 08:47:59;;;;;;;71.28;29.38;;;;;;;-2.84;100.00;98501.31;4961417;28;20055;-64
2022/01/14 08:50:31;;;;;;;79.05;34.67;;;;;;;-2.83;100.00;98506.41;4957294;28;20045;-65
2022/01/14 08:52:59;;;;;;;85.88;36.15;;;;;;;-2.86;100.00;98504.22;4959543;28;20471;-64
2022/01/14 08:55:25;;;;;;;82.95;32.08;;;;;;;-2.53;100.00;98500.88;4960505;28;20736;-66
2022/01/14 08:57:51;;;;;;;70.07;28.15;;;;;;;-2.22;100.00;98500.66;4967639;28;20454;-64
2022/01/14 09:00:18;;;;;;;72.93;28.13;;;;;;;-2.29;100.00;98502.69;4962604;28;20039;-63
2022/01/14 09:02:43;;;;;;;64.82;26.58;;;;;;;-2.23;100.00;98507.91;4963382;28;20104;-65
2022/01/14 09:05:09;;;;;;;65.82;27.30;;;;;;;-2.08;100.00;98503.91;4958289;28;20046;-64
2022/01/14 09:07:35;;;;;;;68.65;26.25;;;;;;;-1.92;100.00;98500.44;4958261;28;20109;-66
2022/01/14 09:10:03;;;;;;;69.65;27.80;;;;;;;-1.86;100.00;98506.69;4977149;28;20038;-66
2022/01/14 09:12:30;;;;;;;79.05;31.88;;;;;;;-1.99;100.00;98505.13;4945208;28;20039;-64
2022/01/14 09:14:55;;;;;;;77.05;32.03;;;;;;;-2.09;100.00;98500.38;4963564;28;20043;-63
2022/01/14 09:17:21;;;;;;;86.20;31.55;;;;;;;-2.02;100.00;98502.91;4953927;28;20108;-65
2022/01/14 09:19:47;;;;;;;78.10;30.17;;;;;;;-1.89;100.00;98507.19;4962538;28;20396;-65
2022/01/14 09:22:17;;;;;;;92.82;37.05;;;;;;;-1.79;100.00;98510.84;4954169;28;20051;-65
2022/01/14 09:24:45;;;;;;;97.45;37.92;;;;;;;-1.82;100.00;98514.06;4974747;28;20089;-64
2022/01/14 09:27:10;;;;;;;74.70;32.22;;;;;;;-1.75;100.00;98519.25;4955780;28;20127;-64
2022/01/14 09:29:36;;;;;;;83.57;32.83;;;;;;;-1.73;100.00;98514.44;4958972;28;20133;-63
2022/01/14 09:32:02;;;;;;;79.25;31.10;;;;;;;-1.61;100.00;98512.50;4953303;28;20468;-61
2022/01/14 09:34:28;;;;;;;98.32;40.22;;;;;;;-1.38;100.00;98510.75;4956714;28;20042;-63
2022/01/14 09:36:53;;;;;;;79.93;32.60;;;;;;;-1.44;100.00;98504.47;4962541;28;20043;-65
2022/01/14 09:39:19;;;;;;;79.28;31.48;;;;;;;-1.24;100.00;98511.22;4956960;28;20094;-63
2022/01/14 09:41:46;;;;;;;81.53;33.53;;;;;;;-1.33;100.00;98510.00;4961894;28;20514;-64
2022/01/14 09:44:14;;;;;;;77.30;31.58;;;;;;;-1.24;100.00;98501.28;4953916;28;20074;-65
2022/01/14 09:46:40;;;;;;;73.70;29.95;;;;;;;-1.05;100.00;98507.19;4961908;28;20464;-64
2022/01/14 09:49:06;;;;;;;73.40;29.83;;;;;;;-0.91;100.00;98509.56;4954007;28;20042;-64
2022/01/14 09:51:40;;;;;;;67.53;28.23;;;;;;;-0.68;100.00;98508.53;4976401;28;20142;-63
2022/01/14 09:54:16;;;;;;;73.93;29.98;;;;;;;-1.19;100.00;98520.19;4900549;28;20092;-66
2022/01/14 09:56:45;;;;;;;69.10;28.35;;;;;;;-1.05;100.00;98514.47;4937289;28;20050;-63
2022/01/14 09:59:11;;;;;;;73.15;29.52;;;;;;;-0.93;100.00;98517.06;4956028;28;20129;-65
2022/01/14 10:01:42;;;;;;;69.78;29.25;;;;;;;-0.37;100.00;98509.72;4962818;28;20043;-65
2022/01/14 10:04:13;;;;;;;62.63;27.27;;;;;;;-0.04;100.00;98513.31;4949454;28;20047;-65
2022/01/14 10:06:52;;;;;;;67.38;26.92;;;;;;;0.12;100.00;98509.72;4962867;28;20042;-66
2022/01/14 10:09:43;;;;;;;63.90;27.67;;;;;;;0.40;100.00;98504.31;4956807;28;20109;-65
2022/01/14 10:12:13;;;;;;;67.32;29.23;;;;;;;0.55;100.00;98510.66;4957342;28;20038;-65
2022/01/14 10:14:41;;;;;;;62.17;27.00;;;;;;;0.84;100.00;98507.66;4962209;28;20046;-65
2022/01/14 10:17:09;;;;;;;56.58;26.92;;;;;;;0.55;100.00;98499.06;4966895;28;20535;-65
2022/01/14 10:19:40;;;;;;;60.88;27.15;;;;;;;0.68;100.00;98498.63;4960106;28;20050;-65
2022/01/14 10:22:21;;;;;;;60.53;27.50;;;;;;;0.88;98.84;98497.97;4950524;28;20138;-64
2022/01/14 10:25:07;;;;;;;59.38;24.88;;;;;;;1.09;96.48;98492.72;4961608;28;20062;-66
2022/01/14 10:27:44;;;;;;;57.92;25.40;;;;;;;1.35;95.23;98496.34;4957153;28;20086;-66
2022/01/14 10:30:19;;;;;;;58.38;24.65;;;;;;;1.34;95.09;98492.03;4956309;28;20133;-65
2022/01/14 10:32:46;;;;;;;55.78;25.58;;;;;;;1.29;94.96;98478.50;4959002;28;20130;-65
2022/01/14 10:35:18;;;;;;;62.15;25.48;;;;;;;1.32;94.72;98480.69;4955342;28;20073;-65
2022/01/14 10:37:43;;;;;;;55.83;26.30;;;;;;;1.09;97.42;98480.00;4961681;28;20451;-66
2022/01/14 10:40:18;;;;;;;62.60;26.88;;;;;;;1.48;96.15;98470.78;4951219;28;20050;-64
2022/01/14 10:42:45;;;;;;;59.20;25.92;;;;;;;1.78;94.07;98472.75;4956025;28;20105;-65
2022/01/14 10:45:22;;;;;;;55.20;25.35;;;;;;;2.10;91.63;98477.97;4952734;28;20500;-64
2022/01/14 10:48:03;;;;;;;52.40;25.17;;;;;;;0.99;97.09;98479.97;4956132;28;20050;-65
2022/01/14 10:50:55;;;;;;;61.55;26.42;;;;;;;1.67;95.51;98473.81;4957062;28;20551;-66
2022/01/14 10:53:36;;;;;;;54.70;25.75;;;;;;;2.63;89.86;98480.47;4956665;28;20053;-64
2022/01/14 10:56:06;;;;;;;51.97;25.58;;;;;;;3.17;85.51;98476.31;4958503;28;20137;-63
2022/01/14 10:58:50;;;;;;;61.80;27.00;;;;;;;3.30;83.38;98479.53;4961508;28;20050;-66
2022/01/14 11:01:21;;;;;;;56.38;25.75;;;;;;;4.16;80.44;98472.06;4955405;28;20043;-65
2022/01/14 11:03:47;;;;;;;51.33;24.88;;;;;;;4.92;76.13;98467.16;4956995;28;20403;-66
2022/01/14 11:06:22;;;;;;;50.65;24.58;;;;;;;5.07;74.00;98466.19;4953369;28;20609;-64
2022/01/14 11:08:55;;;;;;;49.97;24.05;;;;;;;4.94;73.40;98468.47;4949649;28;20088;-64
2022/01/14 11:11:21;;;;;;;58.72;25.75;;;;;;;3.89;76.31;98465.22;4955050;28;20093;-64
2022/01/14 11:13:46;;;;;;;53.22;26.30;;;;;;;3.93;76.07;98460.84;4958865;28;20042;-65
2022/01/14 11:16:12;;;;;;;63.72;29.30;;;;;;;2.43;83.73;98458.81;4953757;28;20097;-65
2022/01/14 11:18:38;;;;;;;76.22;38.22;;;;;;;0.80;94.89;98460.69;4960960;28;20734;-65
2022/01/14 11:23:48;;;;;;;64.82;28.48;;;;;;;0.38;100.00;98470.34;4959427;28;20121;-64
2022/01/14 11:26:18;;;;;;;62.97;30.75;;;;;;;0.61;100.00;98452.19;4954892;28;20403;-62
2022/01/14 11:28:45;;;;;;;64.63;28.27;;;;;;;0.64;100.00;98448.16;4942886;28;20042;-62
2022/01/14 11:31:36;;;;;;;67.00;28.02;;;;;;;0.91;98.13;98442.69;4955990;28;20504;-64
2022/01/14 11:34:03;;;;;;;61.97;27.23;;;;;;;2.08;94.60;98438.78;4960129;28;20149;-68
2022/01/14 11:36:52;;;;;;;59.67;24.58;;;;;;;2.61;88.93;98441.22;4957314;28;20043;-65
2022/01/14 11:39:23;;;;;;;60.47;26.55;;;;;;;3.01;85.92;98442.25;4948373;28;20037;-65
2022/01/14 11:42:18;;;;;;;53.60;25.00;;;;;;;4.20;81.14;98424.34;4974907;28;20126;-65